createdAt,value
2023-03-06T00:02:21.754Z,10.98
2023-03-06T00:04:48.193Z,10.23
2023-03-06T00:07:14.787Z,10.52
2023-03-06T00:09:41.170Z,10.98
2023-03-06T00:12:08.233Z,10.40
2023-03-06T00:14:34.616Z,10.93
2023-03-06T00:17:01.220Z,10.40
2023-03-06T00:19:30.566Z,10.85
2023-03-06T00:21:57.301Z,11.23
2023-03-06T00:24:23.738Z,11.07
2023-03-06T00:26:50.933Z,11.43
2023-03-06T00:29:17.332Z,10.80
2023-03-06T00:31:46.438Z,12.23
2023-03-06T00:34:12.828Z,13.27
2023-03-06T00:36:39.271Z,13.77
2023-03-06T00:39:05.803Z,12.20
2023-03-06T00:41:32.200Z,12.80
2023-03-06T00:43:58.682Z,12.55
2023-03-06T00:46:25.193Z,12.40
2023-03-06T00:48:51.558Z,13.15
2023-03-06T00:51:19.709Z,13.35
2023-03-06T00:53:46.123Z,13.55
2023-03-06T00:56:12.585Z,12.68
2023-03-06T00:58:40.043Z,12.60
2023-03-06T01:01:07.384Z,13.20
2023-03-06T01:03:33.877Z,13.23
2023-03-06T01:06:00.457Z,13.07
2023-03-06T01:08:26.870Z,13.23
2023-03-06T01:10:53.306Z,14.27
2023-03-06T01:13:19.708Z,14.48
2023-03-06T01:15:46.121Z,13.85
2023-03-06T01:18:12.692Z,14.13
2023-03-06T01:20:39.208Z,12.40
2023-03-06T01:23:05.756Z,12.90
2023-03-06T01:25:33.111Z,14.05
2023-03-06T01:27:59.789Z,13.18
2023-03-06T01:30:26.168Z,13.65
2023-03-06T01:32:53.056Z,12.70
2023-03-06T01:35:19.451Z,13.32
2023-03-06T01:37:56.135Z,13.80
2023-03-06T01:40:24.442Z,12.98
2023-03-06T01:42:51.007Z,13.07
2023-03-06T01:45:17.293Z,13.30
2023-03-06T01:47:44.884Z,11.85
2023-03-06T01:50:15.824Z,12.27
2023-03-06T01:52:57.036Z,13.50
2023-03-06T01:55:29.965Z,13.27
2023-03-06T01:57:58.951Z,13.82
2023-03-06T02:00:27.703Z,13.07
2023-03-06T02:03:04.036Z,12.93
2023-03-06T02:05:30.553Z,12.95
2023-03-06T02:07:59.294Z,12.80
2023-03-06T02:10:25.806Z,13.05
2023-03-06T02:12:52.987Z,13.20
2023-03-06T02:15:23.670Z,13.60
2023-03-06T02:17:52.939Z,12.88
2023-03-06T02:20:28.374Z,13.98
2023-03-06T02:23:18.429Z,12.85
2023-03-06T02:25:48.228Z,12.05
2023-03-06T02:28:18.054Z,13.40
2023-03-06T02:30:47.118Z,12.65
2023-03-06T02:33:15.991Z,13.13
2023-03-06T02:35:54.675Z,13.30
2023-03-06T02:38:25.316Z,12.75
2023-03-06T02:40:56.517Z,13.82
2023-03-06T02:43:27.793Z,11.90
2023-03-06T02:45:56.357Z,12.55
2023-03-06T02:48:22.789Z,12.90
2023-03-06T02:50:49.324Z,12.88
2023-03-06T02:53:18.768Z,12.77
2023-03-06T02:55:46.433Z,12.57
2023-03-06T02:58:12.940Z,12.02
2023-03-06T03:00:40.213Z,12.77
2023-03-06T03:03:07.048Z,11.93
2023-03-06T03:05:33.457Z,12.57
2023-03-06T03:08:01.212Z,12.10
2023-03-06T03:10:27.653Z,11.73
2023-03-06T03:12:54.030Z,12.40
2023-03-06T03:15:20.471Z,11.88
2023-03-06T03:17:46.894Z,12.63
2023-03-06T03:20:17.042Z,12.25
2023-03-06T03:22:48.015Z,12.05
2023-03-06T03:25:14.503Z,11.93
2023-03-06T03:27:40.923Z,11.88
2023-03-06T03:30:08.278Z,12.00
2023-03-06T03:32:34.753Z,12.00
2023-03-06T03:35:01.929Z,12.60
2023-03-06T03:37:28.656Z,12.15
2023-03-06T03:39:56.399Z,11.60
2023-03-06T03:42:25.844Z,12.70
2023-03-06T03:44:52.225Z,12.77
2023-03-06T03:47:18.660Z,11.50
2023-03-06T03:49:45.024Z,13.05
2023-03-06T03:52:11.401Z,13.30
2023-03-06T03:54:37.781Z,11.60
2023-03-06T03:57:04.266Z,12.88
2023-03-06T03:59:30.681Z,12.90
2023-03-06T04:01:57.189Z,12.40
2023-03-06T04:04:23.619Z,11.95
2023-03-06T04:06:50.050Z,13.25
2023-03-06T04:09:16.438Z,10.75
2023-03-06T04:11:42.820Z,11.27
2023-03-06T04:14:12.346Z,11.80
2023-03-06T04:16:38.747Z,12.00
2023-03-06T04:19:05.145Z,12.13
2023-03-06T04:21:31.585Z,12.55
2023-03-06T04:23:58.527Z,11.82
2023-03-06T04:26:25.100Z,12.95
2023-03-06T04:28:51.818Z,12.70
2023-03-06T04:31:18.221Z,13.73
2023-03-06T04:33:44.607Z,12.95
2023-03-06T04:36:24.734Z,13.63
2023-03-06T04:38:51.386Z,12.73
2023-03-06T04:41:18.706Z,12.75
2023-03-06T04:43:46.158Z,13.32
2023-03-06T04:46:13.464Z,13.13
2023-03-06T04:48:40.423Z,12.88
2023-03-06T04:51:06.924Z,13.50
2023-03-06T04:53:33.659Z,13.70
2023-03-06T04:56:00.039Z,13.63
2023-03-06T04:58:26.493Z,13.98
2023-03-06T05:00:53.111Z,14.30
2023-03-06T05:03:19.637Z,13.02
2023-03-06T05:05:46.577Z,13.30
2023-03-06T05:08:15.286Z,13.45
2023-03-06T05:10:43.137Z,13.63
2023-03-06T05:13:09.609Z,14.70
2023-03-06T05:15:36.421Z,14.60
2023-03-06T05:18:03.075Z,13.68
2023-03-06T05:20:30.416Z,14.75
2023-03-06T05:22:56.851Z,15.68
2023-03-06T05:25:23.335Z,14.25
2023-03-06T05:27:49.706Z,16.67
2023-03-06T05:30:16.612Z,15.82
2023-03-06T05:32:43.231Z,13.40
2023-03-06T05:35:17.081Z,13.85
2023-03-06T05:37:43.552Z,13.85
2023-03-06T05:40:10.767Z,14.73
2023-03-06T05:42:37.194Z,15.85
2023-03-06T05:45:04.665Z,14.98
2023-03-06T05:47:32.437Z,14.70
2023-03-06T05:49:59.062Z,15.10
2023-03-06T05:52:25.924Z,14.70
2023-03-06T05:54:54.204Z,15.05
2023-03-06T05:57:22.194Z,14.73
2023-03-06T05:59:50.110Z,13.45
2023-03-06T06:02:17.894Z,14.88
2023-03-06T06:04:44.317Z,14.68
2023-03-06T06:07:13.941Z,14.68
2023-03-06T06:09:40.577Z,15.60
2023-03-06T06:12:07.692Z,14.10
2023-03-06T06:14:34.836Z,14.98
2023-03-06T06:17:01.795Z,14.80
2023-03-06T06:19:29.948Z,14.50
2023-03-06T06:21:56.531Z,14.32
2023-03-06T06:24:25.661Z,13.88
2023-03-06T06:26:54.113Z,15.48
2023-03-06T06:29:21.889Z,14.52
2023-03-06T06:31:48.474Z,14.27
2023-03-06T06:34:15.188Z,14.35
2023-03-06T06:36:41.770Z,14.90
2023-03-06T06:39:08.871Z,15.48
2023-03-06T06:41:53.477Z,14.82
2023-03-06T06:44:22.687Z,14.70
2023-03-06T06:47:21.279Z,14.05
2023-03-06T06:49:36.929Z,15.30
2023-03-06T06:52:04.253Z,15.60
2023-03-06T06:54:30.716Z,14.98
2023-03-06T06:56:57.114Z,16.05
2023-03-06T06:59:23.878Z,14.43
2023-03-06T07:01:51.586Z,15.48
2023-03-06T07:04:19.158Z,14.93
2023-03-06T07:06:45.572Z,15.60
2023-03-06T07:09:12.550Z,13.98
2023-03-06T07:11:41.540Z,13.90
2023-03-06T07:14:08.460Z,15.68
2023-03-06T07:16:35.024Z,15.23
2023-03-06T07:19:01.483Z,14.63
2023-03-06T07:21:27.894Z,14.75
2023-03-06T07:23:57.149Z,15.02
2023-03-06T07:26:27.590Z,14.10
2023-03-06T07:28:54.349Z,15.02
2023-03-06T07:31:22.703Z,15.05
2023-03-06T07:33:50.756Z,14.55
2023-03-06T07:36:17.460Z,14.27
2023-03-06T07:38:47.575Z,14.15
2023-03-06T07:41:16.298Z,13.43
2023-03-06T07:43:44.424Z,14.27
2023-03-06T07:46:12.497Z,15.07
2023-03-06T07:48:40.064Z,15.30
2023-03-06T07:51:12.596Z,14.82
2023-03-06T07:53:39.231Z,14.70
2023-03-06T07:56:09.270Z,14.82
2023-03-06T07:58:38.027Z,13.43
2023-03-06T08:01:14.061Z,13.88
2023-03-06T08:03:40.876Z,12.73
2023-03-06T08:06:19.287Z,14.43
2023-03-06T08:08:48.638Z,13.43
2023-03-06T08:11:17.306Z,14.35
2023-03-06T08:13:44.692Z,14.40
2023-03-06T08:16:11.898Z,13.75
2023-03-06T08:18:39.782Z,12.98
2023-03-06T08:21:10.400Z,12.90
2023-03-06T08:23:37.417Z,13.63
2023-03-06T08:26:06.953Z,12.98
2023-03-06T08:28:34.140Z,13.00
2023-03-06T08:31:20.996Z,13.10
2023-03-06T08:33:47.680Z,12.80
2023-03-06T08:36:14.053Z,11.63
2023-03-06T08:38:40.423Z,12.55
2023-03-06T08:41:07.000Z,13.18
2023-03-06T08:43:35.121Z,11.60
2023-03-06T08:46:01.959Z,13.20
2023-03-06T08:48:28.444Z,12.07
2023-03-06T08:50:58.142Z,12.75
2023-03-06T08:53:40.349Z,11.35
2023-03-06T08:56:14.366Z,11.98
2023-03-06T08:58:40.732Z,11.82
2023-03-06T09:01:13.404Z,12.38
2023-03-06T09:03:39.881Z,11.45
2023-03-06T09:06:07.879Z,11.25
2023-03-06T09:08:34.357Z,11.60
2023-03-06T09:11:00.806Z,10.45
2023-03-06T09:13:27.240Z,12.00
2023-03-06T09:15:53.630Z,10.70
2023-03-06T09:18:19.995Z,10.15
2023-03-06T09:20:46.378Z,10.45
2023-03-06T09:23:12.775Z,10.82
2023-03-06T09:25:39.195Z,10.02
2023-03-06T09:28:11.742Z,10.82
2023-03-06T09:30:41.673Z,10.27
2023-03-06T09:33:08.238Z,9.90
2023-03-06T09:35:35.204Z,8.75
2023-03-06T09:38:02.337Z,9.68
2023-03-06T09:40:45.575Z,9.32
2023-03-06T09:43:20.801Z,9.30
2023-03-06T09:45:48.743Z,9.00
2023-03-06T09:48:16.629Z,9.38
2023-03-06T09:51:02.137Z,10.18
2023-03-06T09:53:44.709Z,10.23
2023-03-06T09:56:17.636Z,11.35
2023-03-06T09:58:49.676Z,11.45
2023-03-06T10:01:30.241Z,9.88
2023-03-06T10:04:12.395Z,10.48
2023-03-06T10:06:56.247Z,9.15
2023-03-06T10:09:40.185Z,9.10
2023-03-06T10:14:52.887Z,8.48
2023-03-06T10:17:22.436Z,9.30
2023-03-06T10:19:49.355Z,9.95
2023-03-06T10:22:30.438Z,9.48
2023-03-06T10:24:59.853Z,9.68
2023-03-06T10:27:45.358Z,8.63
2023-03-06T10:30:18.879Z,8.63
2023-03-06T10:35:22.262Z,8.43
2023-03-06T10:37:49.121Z,8.18
2023-03-06T10:40:21.843Z,7.97
2023-03-06T10:42:49.543Z,8.03
2023-03-06T10:45:19.418Z,7.60
2023-03-06T10:47:46.408Z,8.90
2023-03-06T10:50:26.710Z,7.80
2023-03-06T10:53:06.317Z,8.05
2023-03-06T10:55:35.743Z,9.10
2023-03-06T10:58:22.908Z,8.77
2023-03-06T11:01:02.520Z,8.82
2023-03-06T11:03:29.272Z,11.07
2023-03-06T11:05:58.286Z,11.55
2023-03-06T11:08:24.756Z,7.60
2023-03-06T11:11:04.036Z,7.45
2023-03-06T11:13:33.918Z,8.30
2023-03-06T11:16:03.237Z,8.43
2023-03-06T11:18:34.895Z,6.40
2023-03-06T11:21:04.257Z,7.47
2023-03-06T11:23:37.998Z,6.35
2023-03-06T11:26:16.590Z,8.05
2023-03-06T11:28:53.661Z,7.32
2023-03-06T11:31:24.184Z,7.03
2023-03-06T11:34:09.652Z,8.07
2023-03-06T11:36:43.976Z,6.90
2023-03-06T11:39:31.506Z,7.68
2023-03-06T11:42:15.645Z,7.25
2023-03-06T11:44:51.733Z,8.02
2023-03-06T11:47:48.969Z,7.93
2023-03-06T11:50:33.908Z,9.27
2023-03-06T11:53:06.100Z,7.60
2023-03-06T11:55:59.829Z,7.53
2023-03-06T11:58:54.422Z,8.10
2023-03-06T12:01:41.857Z,7.68
2023-03-06T12:04:36.492Z,8.00
2023-03-06T12:07:15.437Z,7.18
2023-03-06T12:10:16.698Z,6.28
2023-03-06T12:12:52.490Z,6.55
2023-03-06T12:15:25.878Z,6.75
2023-03-06T12:18:29.178Z,6.53
2023-03-06T12:21:09.332Z,7.60
2023-03-06T12:23:55.488Z,8.38
2023-03-06T12:26:28.038Z,6.97
2023-03-06T12:29:29.077Z,6.95
2023-03-06T12:32:04.875Z,7.28
2023-03-06T12:34:58.124Z,7.10
2023-03-06T12:37:51.950Z,7.63
2023-03-06T12:40:41.812Z,8.05
2023-03-06T12:43:29.805Z,7.60
2023-03-06T12:46:02.171Z,7.75
2023-03-06T12:48:35.874Z,10.30
2023-03-06T12:53:32.563Z,8.02
2023-03-06T12:56:01.954Z,8.65
2023-03-06T12:58:28.327Z,8.45
2023-03-06T13:01:06.191Z,8.63
2023-03-06T13:03:56.175Z,9.52
2023-03-06T13:06:34.186Z,8.27
2023-03-06T13:09:26.429Z,8.50
2023-03-06T13:12:08.612Z,9.35
2023-03-06T13:14:42.398Z,8.60
2023-03-06T13:17:20.876Z,7.72
2023-03-06T13:19:48.434Z,8.20
2023-03-06T13:22:32.945Z,8.65
2023-03-06T13:25:19.656Z,7.93
2023-03-06T13:27:52.276Z,8.20
2023-03-06T13:30:45.707Z,8.52
2023-03-06T13:33:52.499Z,8.90
2023-03-06T13:36:39.093Z,8.10
2023-03-06T13:39:07.487Z,8.18
2023-03-06T13:41:37.727Z,8.07
2023-03-06T13:44:40.790Z,9.45
2023-03-06T13:47:21.368Z,8.63
2023-03-06T13:49:48.506Z,8.98
2023-03-06T13:52:42.617Z,9.05
2023-03-06T13:55:38.358Z,7.90
2023-03-06T13:58:16.009Z,9.00
2023-03-06T14:01:11.902Z,8.82
2023-03-06T14:04:02.990Z,8.40
2023-03-06T14:06:35.513Z,8.25
2023-03-06T14:09:05.971Z,8.50
2023-03-06T14:11:34.223Z,8.68
2023-03-06T14:14:00.690Z,8.02
2023-03-06T14:16:48.944Z,8.38
2023-03-06T14:19:19.081Z,8.38
2023-03-06T14:21:49.076Z,8.73
2023-03-06T14:24:17.978Z,8.27
2023-03-06T14:26:48.751Z,9.43
2023-03-06T14:29:21.551Z,8.95
2023-03-06T14:31:53.887Z,9.83
2023-03-06T14:34:29.536Z,9.00
2023-03-06T14:37:00.766Z,10.63
2023-03-06T14:39:34.763Z,9.07
2023-03-06T14:42:24.698Z,8.55
2023-03-06T14:45:13.287Z,9.30
2023-03-06T14:47:39.673Z,8.98
2023-03-06T14:50:25.801Z,10.68
2023-03-06T14:52:56.924Z,9.40
2023-03-06T14:55:26.076Z,10.45
2023-03-06T14:58:00.673Z,9.27
2023-03-06T15:00:34.292Z,9.25
2023-03-06T15:03:01.737Z,9.05
2023-03-06T15:05:30.533Z,9.48
2023-03-06T15:08:04.935Z,10.05
2023-03-06T15:10:34.099Z,9.93
2023-03-06T15:13:11.233Z,10.38
2023-03-06T15:15:38.341Z,9.88
2023-03-06T15:18:28.801Z,10.45
2023-03-06T15:21:09.584Z,10.82
2023-03-06T15:23:36.002Z,10.02
2023-03-06T15:26:28.035Z,10.43
2023-03-06T15:29:07.023Z,10.05
2023-03-06T15:31:37.886Z,9.77
2023-03-06T15:34:19.710Z,9.15
2023-03-06T15:36:53.994Z,9.75
2023-03-06T15:39:37.345Z,10.20
2023-03-06T15:42:26.051Z,10.05
2023-03-06T15:44:57.712Z,9.95
2023-03-06T15:47:24.674Z,10.30
2023-03-06T15:49:53.142Z,9.80
2023-03-06T15:52:21.389Z,9.55
2023-03-06T15:54:49.458Z,10.02
2023-03-06T15:57:23.829Z,11.00
2023-03-06T15:59:50.727Z,9.95
2023-03-06T16:02:21.215Z,9.77
2023-03-06T16:04:49.255Z,10.32
2023-03-06T16:07:15.833Z,10.57
2023-03-06T16:09:43.662Z,10.82
2023-03-06T16:12:21.406Z,10.63
2023-03-06T16:14:49.328Z,11.68
2023-03-06T16:17:15.932Z,12.23
2023-03-06T16:19:43.315Z,12.25
2023-03-06T16:22:10.172Z,13.15
2023-03-06T16:24:37.320Z,12.00
2023-03-06T16:27:04.830Z,12.50
2023-03-06T16:29:31.343Z,11.60
2023-03-06T16:31:59.028Z,12.05
2023-03-06T16:34:26.392Z,13.15
2023-03-06T16:36:53.497Z,13.65
2023-03-06T16:39:23.422Z,13.00
2023-03-06T16:41:50.825Z,12.25
2023-03-06T16:44:17.479Z,13.52
2023-03-06T16:46:47.078Z,12.93
2023-03-06T16:49:24.795Z,14.13
2023-03-06T16:51:53.167Z,12.52
2023-03-06T16:54:20.093Z,14.52
2023-03-06T16:56:46.647Z,13.80
2023-03-06T16:59:13.293Z,13.23
2023-03-06T17:01:43.116Z,13.50
2023-03-06T17:04:09.941Z,14.98
2023-03-06T17:06:36.769Z,15.50
2023-03-06T17:09:03.970Z,14.98
2023-03-06T17:11:30.460Z,14.88
2023-03-06T17:13:56.954Z,14.68
2023-03-06T17:16:26.460Z,14.85
2023-03-06T17:18:54.789Z,14.02
2023-03-06T17:21:21.677Z,14.02
2023-03-06T17:23:48.207Z,15.32
2023-03-06T17:26:18.895Z,15.45
2023-03-06T17:28:45.977Z,16.00
2023-03-06T17:31:14.408Z,14.90
2023-03-06T17:33:41.013Z,15.50
2023-03-06T17:36:08.984Z,14.93
2023-03-06T17:38:35.558Z,14.88
2023-03-06T17:41:06.780Z,15.07
2023-03-06T17:43:34.224Z,14.77
2023-03-06T17:46:05.990Z,15.63
2023-03-06T17:48:33.312Z,15.05
2023-03-06T17:51:00.033Z,14.77
2023-03-06T17:53:26.954Z,15.18
2023-03-06T17:55:54.230Z,16.10
2023-03-06T17:58:20.784Z,15.23
2023-03-06T18:00:47.351Z,17.75
2023-03-06T18:03:13.992Z,15.23
2023-03-06T18:05:40.557Z,15.90
2023-03-06T18:08:10.255Z,16.23
2023-03-06T18:10:42.016Z,16.55
2023-03-06T18:13:10.225Z,16.52
2023-03-06T18:15:40.772Z,16.63
2023-03-06T18:18:08.599Z,16.15
2023-03-06T18:20:41.019Z,16.00
2023-03-06T18:23:07.511Z,15.80
2023-03-06T18:25:34.008Z,15.52
2023-03-06T18:28:00.464Z,15.18
2023-03-06T18:30:27.015Z,18.05
2023-03-06T18:32:54.252Z,16.95
2023-03-06T18:35:21.187Z,16.33
2023-03-06T18:37:49.882Z,16.48
2023-03-06T18:40:16.443Z,15.75
2023-03-06T18:42:43.060Z,16.65
2023-03-06T18:45:10.469Z,16.05
2023-03-06T18:47:48.023Z,14.75
2023-03-06T18:50:17.456Z,16.73
2023-03-06T18:52:44.581Z,16.65
2023-03-06T18:55:11.637Z,15.48
2023-03-06T18:57:38.671Z,17.67
2023-03-06T19:00:06.468Z,17.08
2023-03-06T19:02:32.850Z,18.83
2023-03-06T19:04:59.312Z,16.35
2023-03-06T19:07:25.725Z,19.20
2023-03-06T19:09:52.117Z,18.42
2023-03-06T19:12:18.552Z,15.88
2023-03-06T19:14:44.923Z,17.23
2023-03-06T19:17:11.383Z,16.13
2023-03-06T19:19:37.811Z,15.98
2023-03-06T19:22:04.241Z,15.95
2023-03-06T19:24:30.662Z,15.52
2023-03-06T19:26:57.071Z,14.80
2023-03-06T19:29:23.481Z,14.95
2023-03-06T19:31:59.479Z,15.25
2023-03-06T19:34:25.917Z,15.18
2023-03-06T19:36:52.312Z,14.20
2023-03-06T19:39:18.684Z,14.65
2023-03-06T19:41:46.870Z,14.52
2023-03-06T19:44:14.536Z,14.75
2023-03-06T19:46:40.949Z,14.82
2023-03-06T19:49:12.001Z,14.85
2023-03-06T19:51:38.569Z,14.32
2023-03-06T19:54:04.963Z,14.60
2023-03-06T19:56:33.664Z,13.93
2023-03-06T19:59:00.249Z,14.60
2023-03-06T20:01:27.592Z,14.90
2023-03-06T20:03:59.048Z,14.90
2023-03-06T20:06:28.710Z,14.93
2023-03-06T20:08:55.695Z,14.85
2023-03-06T20:11:25.004Z,14.07
2023-03-06T20:13:52.741Z,13.50
2023-03-06T20:16:19.635Z,14.27
2023-03-06T20:18:46.246Z,14.48
2023-03-06T20:21:13.514Z,14.88
2023-03-06T20:23:40.158Z,14.15
2023-03-06T20:26:12.319Z,14.43
2023-03-06T20:28:40.470Z,15.18
2023-03-06T20:31:19.233Z,15.15
2023-03-06T20:33:47.252Z,13.55
2023-03-06T20:36:19.767Z,14.20
2023-03-06T20:38:46.931Z,13.70
2023-03-06T20:41:19.276Z,15.00
2023-03-06T20:43:45.844Z,14.90
2023-03-06T20:46:13.268Z,15.40
2023-03-06T20:48:41.062Z,13.63
2023-03-06T20:51:13.881Z,12.98
2023-03-06T20:53:40.829Z,13.68
2023-03-06T20:56:13.809Z,14.20
2023-03-06T20:58:40.904Z,12.93
2023-03-06T21:01:07.466Z,13.75
2023-03-06T21:03:34.286Z,12.82
2023-03-06T21:06:00.762Z,13.93
2023-03-06T21:08:27.206Z,12.73
2023-03-06T21:10:53.589Z,13.88
2023-03-06T21:13:20.500Z,13.10
2023-03-06T21:15:47.622Z,13.20
2023-03-06T21:18:14.174Z,13.23
2023-03-06T21:20:41.464Z,12.98
2023-03-06T21:23:13.668Z,18.05
2023-03-06T21:25:51.188Z,12.90
2023-03-06T21:28:18.725Z,12.63
2023-03-06T21:30:45.792Z,13.55
2023-03-06T21:33:13.617Z,12.95
2023-03-06T21:35:41.800Z,13.40
2023-03-06T21:38:19.087Z,13.75
2023-03-06T21:40:46.060Z,12.77
2023-03-06T21:43:13.038Z,14.98
2023-03-06T21:45:44.051Z,16.83
2023-03-06T21:48:10.640Z,13.52
2023-03-06T21:50:37.407Z,12.70
2023-03-06T21:53:03.915Z,13.25
2023-03-06T21:55:30.910Z,14.98
2023-03-06T21:57:57.726Z,15.85
2023-03-06T22:00:25.694Z,13.45
2023-03-06T22:02:53.995Z,13.50
2023-03-06T22:05:20.727Z,15.07
2023-03-06T22:07:47.201Z,13.23
2023-03-06T22:10:14.841Z,12.52
2023-03-06T22:12:41.953Z,14.77
2023-03-06T22:15:09.989Z,13.13
2023-03-06T22:17:36.787Z,13.20
2023-03-06T22:20:04.358Z,13.55
2023-03-06T22:22:31.393Z,12.85
2023-03-06T22:24:58.281Z,13.15
2023-03-06T22:27:24.858Z,14.13
2023-03-06T22:29:52.620Z,14.05
2023-03-06T22:32:25.295Z,14.70
2023-03-06T22:34:51.850Z,11.98
2023-03-06T22:37:19.245Z,13.40
2023-03-06T22:39:45.653Z,11.85
2023-03-06T22:42:12.091Z,11.65
2023-03-06T22:44:41.700Z,12.35
2023-03-06T22:47:08.300Z,11.73
2023-03-06T22:49:34.755Z,12.25
2023-03-06T22:52:01.187Z,11.95
2023-03-06T22:54:27.824Z,12.50
2023-03-06T22:56:54.208Z,12.73
2023-03-06T22:59:20.744Z,13.07
2023-03-06T23:01:47.252Z,12.98
2023-03-06T23:04:13.966Z,11.50
2023-03-06T23:06:43.208Z,11.70
2023-03-06T23:09:15.914Z,12.07
2023-03-06T23:11:42.567Z,12.03
2023-03-06T23:14:12.297Z,12.75
2023-03-06T23:16:39.216Z,12.95
2023-03-06T23:19:06.458Z,11.80
2023-03-06T23:21:34.434Z,13.68
2023-03-06T23:24:01.922Z,13.45
2023-03-06T23:26:37.938Z,12.32
2023-03-06T23:29:04.475Z,12.50
2023-03-06T23:31:31.567Z,13.90
2023-03-06T23:34:00.332Z,12.70
2023-03-06T23:36:27.796Z,13.40
2023-03-06T23:38:54.820Z,12.80
2023-03-06T23:41:21.877Z,12.57
2023-03-06T23:43:49.777Z,13.25
2023-03-06T23:46:17.218Z,13.18
2023-03-06T23:48:44.342Z,13.95
2023-03-06T23:51:21.784Z,13.10
2023-03-06T23:53:54.386Z,12.80
2023-03-06T23:56:24.494Z,12.85
2023-03-06T23:58:51.270Z,12.32
